createdAt,value
2018-11-05T00:01:53.247Z,12.51
2018-11-05T00:04:22.481Z,12.46
2018-11-05T00:06:50.714Z,12.47
2018-11-05T00:09:18.968Z,12.49
2018-11-05T00:11:47.331Z,12.51
2018-11-05T00:14:15.998Z,12.52
2018-11-05T00:16:46.622Z,12.47
2018-11-05T00:19:17.224Z,12.54
2018-11-05T00:21:46.738Z,12.59
2018-11-05T00:24:18.458Z,12.55
2018-11-05T00:26:48.200Z,12.51
2018-11-05T00:29:17.564Z,12.36
2018-11-05T00:31:46.255Z,12.39
2018-11-05T00:34:14.606Z,12.58
2018-11-05T00:36:43.095Z,12.58
2018-11-05T00:39:12.524Z,12.47
2018-11-05T00:41:40.765Z,12.42
2018-11-05T00:44:09.078Z,12.38
2018-11-05T00:46:37.525Z,12.43
2018-11-05T00:49:06.006Z,12.41
2018-11-05T00:51:34.521Z,12.41
2018-11-05T00:54:03.008Z,12.50
2018-11-05T00:56:31.285Z,12.50
2018-11-05T00:58:59.388Z,12.51
2018-11-05T01:01:27.697Z,12.54
2018-11-05T01:03:55.816Z,12.53
2018-11-05T01:06:23.892Z,12.59
2018-11-05T01:08:51.956Z,12.58
2018-11-05T01:11:20.064Z,12.63
2018-11-05T01:13:48.223Z,12.54
2018-11-05T01:16:16.383Z,12.61
2018-11-05T01:18:44.695Z,12.61
2018-11-05T01:21:12.767Z,12.59
2018-11-05T01:23:40.830Z,12.52
2018-11-05T01:26:08.926Z,12.54
2018-11-05T01:28:37.012Z,12.46
2018-11-05T01:31:05.342Z,12.44
2018-11-05T01:33:33.403Z,12.50
2018-11-05T01:36:01.542Z,12.48
2018-11-05T01:38:29.712Z,12.53
2018-11-05T01:40:57.825Z,12.52
2018-11-05T01:43:25.907Z,12.45
2018-11-05T01:45:54.024Z,12.46
2018-11-05T01:48:22.100Z,12.46
2018-11-05T01:50:50.276Z,12.29
2018-11-05T01:53:18.381Z,12.29
2018-11-05T01:55:46.485Z,12.26
2018-11-05T01:58:14.565Z,12.35
2018-11-05T02:00:42.645Z,12.43
2018-11-05T02:03:10.805Z,12.35
2018-11-05T02:05:38.916Z,12.39
2018-11-05T02:08:07.153Z,12.43
2018-11-05T02:10:35.248Z,12.44
2018-11-05T02:13:03.378Z,12.33
2018-11-05T02:15:31.654Z,12.28
2018-11-05T02:17:59.775Z,12.28
2018-11-05T02:20:27.916Z,12.28
2018-11-05T02:22:56.022Z,12.23
2018-11-05T02:25:24.116Z,12.29
2018-11-05T02:27:52.262Z,12.29
2018-11-05T02:30:20.401Z,12.27
2018-11-05T02:32:48.598Z,12.35
2018-11-05T02:35:17.715Z,12.39
2018-11-05T02:37:46.476Z,12.43
2018-11-05T02:40:15.875Z,12.45
2018-11-05T02:42:44.559Z,12.38
2018-11-05T02:45:13.765Z,12.31
2018-11-05T02:47:41.924Z,12.35
2018-11-05T02:50:17.207Z,12.30
2018-11-05T02:52:46.068Z,12.24
2018-11-05T02:55:14.145Z,12.36
2018-11-05T02:57:42.232Z,12.28
2018-11-05T03:00:14.248Z,12.31
2018-11-05T03:02:42.648Z,12.31
2018-11-05T03:05:12.726Z,12.42
2018-11-05T03:07:41.082Z,12.31
2018-11-05T03:10:10.447Z,12.31
2018-11-05T03:12:38.835Z,12.29
2018-11-05T03:15:07.864Z,12.30
2018-11-05T03:17:36.032Z,12.33
2018-11-05T03:20:04.156Z,12.39
2018-11-05T03:22:32.246Z,12.38
2018-11-05T03:25:00.338Z,12.31
2018-11-05T03:27:28.416Z,12.33
2018-11-05T03:29:56.595Z,12.40
2018-11-05T03:32:30.958Z,12.46
2018-11-05T03:34:59.037Z,12.43
2018-11-05T03:37:27.128Z,12.32
2018-11-05T03:39:55.236Z,12.37
2018-11-05T03:42:23.413Z,12.35
2018-11-05T03:44:51.524Z,12.29
2018-11-05T03:47:19.589Z,12.33
2018-11-05T03:49:47.686Z,12.39
2018-11-05T03:52:15.763Z,12.45
2018-11-05T03:54:43.909Z,12.45
2018-11-05T03:57:11.998Z,12.49
2018-11-05T03:59:40.084Z,12.39
2018-11-05T04:02:08.206Z,12.27
2018-11-05T04:04:36.334Z,12.31
2018-11-05T04:07:04.476Z,12.30
2018-11-05T04:09:32.593Z,12.31
2018-11-05T04:12:00.706Z,12.38
2018-11-05T04:14:28.863Z,12.48
2018-11-05T04:16:57.062Z,12.52
2018-11-05T04:19:25.222Z,12.50
2018-11-05T04:21:53.315Z,12.48
2018-11-05T04:24:21.435Z,12.49
2018-11-05T04:26:49.560Z,12.61
2018-11-05T04:29:17.688Z,12.54
2018-11-05T04:31:45.858Z,12.48
2018-11-05T04:34:13.954Z,12.53
2018-11-05T04:36:42.074Z,12.50
2018-11-05T04:39:15.795Z,12.54
2018-11-05T04:41:43.934Z,12.46
2018-11-05T04:44:12.043Z,12.45
2018-11-05T04:46:40.498Z,12.37
2018-11-05T04:49:09.293Z,12.41
2018-11-05T04:51:37.428Z,12.43
2018-11-05T04:54:06.084Z,12.43
2018-11-05T04:56:34.204Z,12.36
2018-11-05T04:59:02.377Z,12.48
2018-11-05T05:01:30.684Z,12.41
2018-11-05T05:03:58.767Z,12.35
2018-11-05T05:06:26.858Z,12.37
2018-11-05T05:08:54.952Z,12.45
2018-11-05T05:11:23.079Z,12.41
2018-11-05T05:13:51.196Z,12.48
2018-11-05T05:16:19.363Z,12.47
2018-11-05T05:18:47.442Z,12.41
2018-11-05T05:21:15.593Z,12.49
2018-11-05T05:23:43.703Z,12.50
2018-11-05T05:26:11.804Z,12.55
2018-11-05T05:28:39.907Z,12.53
2018-11-05T05:31:08.002Z,12.49
2018-11-05T05:33:36.321Z,12.46
2018-11-05T05:36:04.552Z,12.51
2018-11-05T05:38:32.687Z,12.49
2018-11-05T05:41:01.021Z,12.52
2018-11-05T05:43:28.948Z,12.48
2018-11-05T05:45:57.102Z,12.49
2018-11-05T05:48:25.326Z,12.61
2018-11-05T05:50:53.471Z,12.65
2018-11-05T05:53:21.580Z,12.65
2018-11-05T05:55:49.671Z,12.56
2018-11-05T05:58:17.799Z,12.53
2018-11-05T06:00:45.943Z,12.48
2018-11-05T06:03:14.071Z,12.63
2018-11-05T06:05:42.152Z,12.59
2018-11-05T06:08:10.283Z,12.50
2018-11-05T06:10:38.381Z,12.45
2018-11-05T06:13:06.499Z,12.53
2018-11-05T06:15:34.592Z,12.61
2018-11-05T06:18:02.772Z,12.60
2018-11-05T06:20:30.853Z,12.66
2018-11-05T06:22:58.979Z,12.75
2018-11-05T06:25:27.159Z,12.76
2018-11-05T06:27:55.283Z,12.75
2018-11-05T06:30:23.515Z,12.73
2018-11-05T06:32:52.105Z,12.68
2018-11-05T06:35:20.893Z,12.63
2018-11-05T06:37:48.958Z,12.63
2018-11-05T06:40:18.359Z,12.61
2018-11-05T06:42:46.681Z,12.70
2018-11-05T06:45:16.066Z,12.62
2018-11-05T06:47:45.131Z,12.61
2018-11-05T06:50:16.569Z,12.60
2018-11-05T06:52:45.191Z,12.68
2018-11-05T06:55:13.900Z,12.69
2018-11-05T06:57:42.256Z,12.71
2018-11-05T07:00:14.880Z,12.81
2018-11-05T07:02:43.217Z,12.71
2018-11-05T07:05:11.468Z,12.70
2018-11-05T07:07:39.659Z,12.74
2018-11-05T07:10:09.243Z,12.79
2018-11-05T07:12:37.400Z,12.81
2018-11-05T07:15:06.839Z,12.75
2018-11-05T07:17:34.944Z,12.67
2018-11-05T07:20:03.112Z,12.64
2018-11-05T07:22:31.295Z,12.69
2018-11-05T07:24:59.415Z,12.72
2018-11-05T07:27:27.699Z,12.74
2018-11-05T07:29:55.786Z,12.83
2018-11-05T07:32:23.997Z,12.99
2018-11-05T07:34:52.117Z,13.08
2018-11-05T07:37:20.244Z,13.07
2018-11-05T07:39:48.347Z,13.07
2018-11-05T07:42:16.480Z,13.18
2018-11-05T07:44:44.648Z,13.09
2018-11-05T07:47:12.752Z,13.23
2018-11-05T07:49:40.851Z,13.33
2018-11-05T07:52:08.970Z,13.25
2018-11-05T07:54:37.163Z,13.28
2018-11-05T07:57:05.449Z,13.39
2018-11-05T07:59:33.593Z,13.34
2018-11-05T08:02:01.725Z,13.22
2018-11-05T08:04:29.835Z,13.35
2018-11-05T08:06:57.943Z,13.49
2018-11-05T08:09:26.040Z,13.60
2018-11-05T08:11:54.152Z,13.62
2018-11-05T08:14:22.327Z,13.52
2018-11-05T08:16:50.496Z,13.38
2018-11-05T08:19:18.619Z,13.26
2018-11-05T08:21:46.759Z,13.20
2018-11-05T08:24:14.877Z,13.44
2018-11-05T08:26:42.988Z,13.55
2018-11-05T08:29:11.111Z,13.64
2018-11-05T08:31:39.308Z,13.72
2018-11-05T08:34:07.446Z,13.50
2018-11-05T08:36:35.565Z,13.52
2018-11-05T08:39:04.948Z,13.55
2018-11-05T08:41:33.055Z,13.52
2018-11-05T08:44:01.199Z,13.42
2018-11-05T08:46:29.291Z,13.43
2018-11-05T08:48:57.399Z,13.58
2018-11-05T08:51:25.766Z,13.70
2018-11-05T08:53:53.659Z,13.83
2018-11-05T08:56:21.695Z,13.87
2018-11-05T08:58:49.832Z,14.01
2018-11-05T09:01:18.590Z,14.17
2018-11-05T09:03:48.102Z,14.10
2018-11-05T09:06:16.658Z,14.13
2018-11-05T09:08:44.853Z,14.08
2018-11-05T09:11:13.654Z,14.00
2018-11-05T09:13:41.490Z,14.18
2018-11-05T09:16:09.625Z,14.24
2018-11-05T09:18:37.675Z,14.32
2018-11-05T09:21:05.796Z,14.15
2018-11-05T09:23:33.907Z,14.17
2018-11-05T09:26:02.015Z,14.19
2018-11-05T09:28:30.132Z,14.23
2018-11-05T09:30:58.363Z,14.13
2018-11-05T09:33:26.460Z,14.11
2018-11-05T09:35:54.584Z,14.15
2018-11-05T09:38:22.685Z,14.11
2018-11-05T09:40:50.785Z,14.35
2018-11-05T09:43:18.866Z,14.41
2018-11-05T09:45:46.985Z,14.44
2018-11-05T09:48:15.082Z,14.51
2018-11-05T09:50:43.270Z,14.78
2018-11-05T09:53:11.263Z,14.84
2018-11-05T09:55:39.416Z,14.96
2018-11-05T09:58:07.488Z,14.96
2018-11-05T10:00:35.602Z,15.07
2018-11-05T10:03:09.157Z,15.03
2018-11-05T10:05:37.148Z,14.91
2018-11-05T10:08:05.236Z,14.86
2018-11-05T10:10:33.407Z,14.93
2018-11-05T10:13:01.496Z,15.12
2018-11-05T10:15:29.802Z,15.32
2018-11-05T10:17:57.931Z,15.31
2018-11-05T10:20:26.180Z,14.94
2018-11-05T10:22:54.298Z,15.00
2018-11-05T10:25:22.413Z,15.19
2018-11-05T10:27:51.305Z,15.27
2018-11-05T10:30:21.749Z,15.31
2018-11-05T10:32:49.845Z,15.42
2018-11-05T10:35:18.399Z,15.32
2018-11-05T10:37:46.512Z,15.54
2018-11-05T10:40:17.581Z,15.53
2018-11-05T10:42:46.417Z,15.62
2018-11-05T10:45:15.586Z,15.60
2018-11-05T10:47:43.725Z,15.21
2018-11-05T10:50:12.970Z,15.31
2018-11-05T10:52:41.009Z,15.48
2018-11-05T10:55:09.144Z,15.27
2018-11-05T10:57:37.349Z,15.06
2018-11-05T11:00:17.194Z,15.02
2018-11-05T11:02:49.511Z,14.95
2018-11-05T11:05:17.606Z,14.95
2018-11-05T11:07:45.720Z,15.13
2018-11-05T11:10:13.824Z,15.19
2018-11-05T11:12:41.935Z,15.36
2018-11-05T11:15:10.112Z,15.59
2018-11-05T11:17:38.757Z,15.72
2018-11-05T11:20:08.305Z,15.91
2018-11-05T11:22:36.446Z,15.98
2018-11-05T11:25:05.053Z,15.78
2018-11-05T11:27:33.159Z,15.95
2018-11-05T11:30:01.258Z,16.15
2018-11-05T11:32:29.424Z,16.18
2018-11-05T11:34:58.151Z,15.77
2018-11-05T11:37:26.435Z,15.44
2018-11-05T11:39:54.523Z,15.42
2018-11-05T11:42:22.683Z,15.41
2018-11-05T11:44:50.898Z,15.52
2018-11-05T11:47:18.966Z,15.72
2018-11-05T11:49:47.057Z,15.48
2018-11-05T11:52:15.184Z,15.51
2018-11-05T11:54:43.381Z,15.36
2018-11-05T11:57:11.504Z,15.40
2018-11-05T11:59:39.637Z,15.68
2018-11-05T12:02:13.214Z,15.76
2018-11-05T12:04:41.281Z,15.78
2018-11-05T12:07:09.609Z,15.80
2018-11-05T12:09:37.891Z,15.74
2018-11-05T12:12:06.694Z,15.62
2018-11-05T12:14:34.832Z,15.62
2018-11-05T12:17:03.019Z,15.46
2018-11-05T12:19:31.417Z,15.50
2018-11-05T12:21:59.540Z,15.58
2018-11-05T12:24:27.783Z,15.77
2018-11-05T12:26:55.869Z,15.72
2018-11-05T12:29:24.152Z,15.75
2018-11-05T12:31:52.390Z,15.76
2018-11-05T12:34:20.527Z,15.74
2018-11-05T12:36:48.663Z,15.80
2018-11-05T12:39:16.763Z,15.87
2018-11-05T12:41:44.850Z,15.92
2018-11-05T12:44:12.952Z,15.79
2018-11-05T12:46:41.940Z,15.83
2018-11-05T12:49:10.051Z,15.96
2018-11-05T12:51:38.152Z,16.11
2018-11-05T12:54:06.258Z,16.17
2018-11-05T12:56:34.352Z,16.09
2018-11-05T12:59:02.480Z,16.20
2018-11-05T13:01:31.268Z,16.14
2018-11-05T13:03:59.629Z,16.30
2018-11-05T13:06:27.708Z,16.37
2018-11-05T13:08:55.823Z,16.31
2018-11-05T13:11:23.907Z,16.36
2018-11-05T13:13:52.016Z,16.16
2018-11-05T13:16:20.163Z,16.16
2018-11-05T13:18:48.354Z,15.98
2018-11-05T13:21:16.396Z,16.06
2018-11-05T13:23:45.348Z,16.15
2018-11-05T13:26:14.258Z,16.18
2018-11-05T13:28:42.510Z,16.32
2018-11-05T13:31:10.607Z,16.56
2018-11-05T13:33:38.839Z,16.62
2018-11-05T13:36:06.963Z,16.68
2018-11-05T13:38:35.373Z,16.82
2018-11-05T13:41:03.439Z,16.82
2018-11-05T13:43:31.556Z,16.79
2018-11-05T13:46:00.147Z,16.78
2018-11-05T13:48:28.297Z,16.67
2018-11-05T13:50:55.895Z,16.76
2018-11-05T13:53:24.025Z,16.81
2018-11-05T13:55:52.179Z,16.83
2018-11-05T13:58:20.328Z,16.72
2018-11-05T14:00:48.387Z,16.60
2018-11-05T14:03:16.503Z,16.39
2018-11-05T14:05:44.685Z,16.46
2018-11-05T14:08:12.703Z,16.58
2018-11-05T14:10:40.855Z,16.54
2018-11-05T14:13:08.948Z,16.62
2018-11-05T14:15:37.057Z,16.62
2018-11-05T14:18:05.312Z,16.28
2018-11-05T14:20:33.421Z,16.24
2018-11-05T14:23:01.536Z,16.38
2018-11-05T14:25:29.676Z,16.37
2018-11-05T14:27:57.956Z,16.34
2018-11-05T14:30:25.914Z,16.31
2018-11-05T14:32:54.015Z,16.39
2018-11-05T14:35:22.160Z,16.52
2018-11-05T14:37:50.287Z,16.60
2018-11-05T14:40:19.103Z,16.72
2018-11-05T14:42:47.270Z,16.76
2018-11-05T14:45:16.556Z,16.66
2018-11-05T14:47:45.502Z,16.64
2018-11-05T14:50:15.219Z,16.61
2018-11-05T14:52:43.307Z,16.61
2018-11-05T14:55:13.723Z,16.66
2018-11-05T14:57:42.400Z,16.65
2018-11-05T15:00:12.411Z,16.69
2018-11-05T15:02:41.209Z,16.69
2018-11-05T15:05:10.555Z,16.63
2018-11-05T15:07:39.176Z,16.63
2018-11-05T15:10:08.831Z,16.61
2018-11-05T15:12:36.915Z,16.64
2018-11-05T15:15:05.874Z,16.40
2018-11-05T15:17:34.107Z,16.44
2018-11-05T15:20:02.643Z,16.47
2018-11-05T15:22:30.380Z,16.47
2018-11-05T15:24:58.471Z,16.50
2018-11-05T15:27:26.600Z,16.35
2018-11-05T15:29:54.707Z,16.29
2018-11-05T15:32:22.800Z,16.29
2018-11-05T15:34:50.926Z,16.24
2018-11-05T15:37:19.046Z,16.29
2018-11-05T15:39:47.133Z,16.34
2018-11-05T15:42:15.308Z,16.22
2018-11-05T15:44:43.499Z,16.00
2018-11-05T15:47:11.635Z,15.96
2018-11-05T15:49:39.706Z,15.86
2018-11-05T15:52:08.057Z,15.82
2018-11-05T15:54:36.124Z,15.71
2018-11-05T15:57:04.199Z,15.65
2018-11-05T15:59:32.317Z,15.61
2018-11-05T16:02:05.583Z,15.57
2018-11-05T16:04:33.767Z,15.51
2018-11-05T16:07:01.828Z,15.44
2018-11-05T16:09:30.013Z,15.34
2018-11-05T16:11:58.376Z,15.18
2018-11-05T16:14:26.500Z,15.09
2018-11-05T16:16:54.707Z,15.05
2018-11-05T16:19:22.831Z,14.97
2018-11-05T16:21:50.961Z,14.87
2018-11-05T16:24:19.169Z,14.79
2018-11-05T16:26:47.275Z,14.65
2018-11-05T16:29:15.407Z,14.53
2018-11-05T16:31:43.511Z,14.41
2018-11-05T16:34:11.687Z,14.33
2018-11-05T16:36:39.799Z,14.26
2018-11-05T16:39:09.938Z,14.26
2018-11-05T16:41:38.375Z,14.14
2018-11-05T16:44:06.598Z,14.20
2018-11-05T16:46:34.700Z,14.09
2018-11-05T16:49:03.018Z,13.98
2018-11-05T16:51:31.117Z,13.69
2018-11-05T16:53:59.231Z,13.59
2018-11-05T16:56:27.323Z,13.42
2018-11-05T16:58:55.552Z,13.09
2018-11-05T17:01:24.154Z,13.11
2018-11-05T17:03:52.031Z,13.35
2018-11-05T17:06:20.173Z,13.41
2018-11-05T17:08:48.361Z,13.50
2018-11-05T17:11:16.654Z,13.51
2018-11-05T17:13:44.837Z,13.38
2018-11-05T17:16:12.966Z,13.27
2018-11-05T17:18:41.071Z,13.23
2018-11-05T17:21:09.162Z,13.14
2018-11-05T17:23:37.354Z,13.13
2018-11-05T17:26:11.072Z,13.19
2018-11-05T17:28:50.665Z,13.30
2018-11-05T17:31:21.869Z,13.22
2018-11-05T17:33:50.588Z,13.24
2018-11-05T17:36:24.757Z,13.30
2018-11-05T17:38:55.698Z,13.36
2018-11-05T17:41:25.582Z,13.34
2018-11-05T17:43:56.548Z,13.30
2018-11-05T17:46:28.381Z,13.16
2018-11-05T17:48:57.528Z,13.02
2018-11-05T17:51:28.043Z,13.11
2018-11-05T17:53:56.184Z,13.25
2018-11-05T17:56:24.290Z,13.14
2018-11-05T17:58:55.831Z,13.10
2018-11-05T18:01:26.685Z,13.03
2018-11-05T18:03:58.513Z,12.71
2018-11-05T18:06:28.845Z,12.78
2018-11-05T18:09:01.894Z,12.80
2018-11-05T18:11:39.905Z,12.94
2018-11-05T18:14:14.859Z,12.92
2018-11-05T18:16:46.175Z,12.89
2018-11-05T18:19:20.338Z,12.85
2018-11-05T18:21:54.618Z,12.75
2018-11-05T18:24:29.832Z,12.64
2018-11-05T18:26:59.183Z,12.25
2018-11-05T18:29:33.303Z,12.25
2018-11-05T18:32:02.296Z,12.19
2018-11-05T18:34:32.739Z,12.01
2018-11-05T18:37:02.079Z,11.57
2018-11-05T18:39:30.969Z,11.52
2018-11-05T18:41:59.524Z,11.52
2018-11-05T18:44:28.609Z,11.29
2018-11-05T18:46:57.557Z,11.07
2018-11-05T18:49:27.179Z,10.94
2018-11-05T18:51:56.470Z,10.90
2018-11-05T18:54:26.653Z,10.98
2018-11-05T18:56:56.599Z,11.13
2018-11-05T18:59:25.600Z,11.08
2018-11-05T19:01:54.205Z,11.05
2018-11-05T19:04:23.496Z,10.98
2018-11-05T19:06:53.039Z,10.89
2018-11-05T19:09:22.254Z,10.76
2018-11-05T19:11:51.284Z,10.69
2018-11-05T19:14:21.610Z,10.71
2018-11-05T19:16:50.880Z,11.13
2018-11-05T19:19:19.412Z,10.99
2018-11-05T19:21:50.528Z,10.79
2018-11-05T19:24:20.657Z,10.62
2018-11-05T19:26:51.313Z,10.61
2018-11-05T19:29:20.846Z,10.49
2018-11-05T19:45:23.969Z,10.11
2018-11-05T19:47:55.239Z,10.17
2018-11-05T19:50:24.694Z,10.20
2018-11-05T19:52:55.940Z,10.13
2018-11-05T19:55:24.417Z,10.11
2018-11-05T19:57:55.190Z,10.04
2018-11-05T20:00:27.523Z,9.98
2018-11-05T20:02:57.649Z,9.86
2018-11-05T20:05:27.542Z,9.69
2018-11-05T20:07:57.020Z,9.67
2018-11-05T20:10:32.238Z,9.57
2018-11-05T20:13:07.798Z,10.09
2018-11-05T20:15:39.197Z,10.05
2018-11-05T20:18:09.489Z,9.96
2018-11-05T20:20:39.409Z,9.86
2018-11-05T20:23:09.371Z,9.83
2018-11-05T20:25:41.023Z,9.55
2018-11-05T20:28:10.186Z,9.41
2018-11-05T20:30:40.622Z,9.49
2018-11-05T20:33:15.016Z,9.28
2018-11-05T20:35:43.525Z,9.25
2018-11-05T20:38:12.285Z,9.27
2018-11-05T20:40:46.862Z,9.14
2018-11-05T20:43:15.678Z,9.02
2018-11-05T20:45:44.872Z,8.87
2018-11-05T20:48:13.761Z,8.84
2018-11-05T20:50:43.790Z,9.06
2018-11-05T20:53:12.398Z,9.13
2018-11-05T20:55:43.051Z,9.08
2018-11-05T20:58:13.256Z,8.91
2018-11-05T21:00:43.084Z,8.83
2018-11-05T21:03:12.860Z,8.96
2018-11-05T21:05:41.768Z,9.03
2018-11-05T21:08:10.396Z,9.05
2018-11-05T21:10:41.371Z,9.07
2018-11-05T21:13:09.956Z,9.02
2018-11-05T21:15:39.099Z,9.04
2018-11-05T21:18:08.923Z,9.00
2018-11-05T21:20:40.178Z,9.01
2018-11-05T21:23:15.772Z,8.95
2018-11-05T21:25:45.245Z,8.73
2018-11-05T21:28:15.596Z,8.61
2018-11-05T21:30:50.564Z,8.54
2018-11-05T21:33:23.190Z,8.30
2018-11-05T21:35:51.663Z,8.17
2018-11-05T21:38:20.543Z,8.19
2018-11-05T21:40:51.314Z,8.15
2018-11-05T21:43:29.049Z,8.16
2018-11-05T21:46:33.735Z,8.34
2018-11-05T21:49:02.426Z,8.33
2018-11-05T21:51:31.057Z,8.36
2018-11-05T21:54:00.156Z,8.45
2018-11-05T21:56:32.617Z,8.40
2018-11-05T21:59:06.790Z,8.17
2018-11-05T22:01:38.755Z,8.06
2018-11-05T22:04:07.849Z,8.22
2018-11-05T22:06:38.162Z,8.39
2018-11-05T22:09:09.972Z,8.26
2018-11-05T22:11:38.435Z,8.24
2018-11-05T22:14:12.357Z,7.98
2018-11-05T22:16:41.122Z,7.78
2018-11-05T22:19:11.305Z,7.62
2018-11-05T22:21:39.766Z,7.68
2018-11-05T22:24:08.863Z,7.71
2018-11-05T22:26:38.516Z,7.63
2018-11-05T22:29:08.263Z,7.53
2018-11-05T22:31:42.132Z,7.59
2018-11-05T22:34:11.581Z,7.82
2018-11-05T22:36:41.078Z,7.76
2018-11-05T22:39:11.219Z,7.64
2018-11-05T22:41:44.788Z,7.51
2018-11-05T22:44:13.605Z,7.54
2018-11-05T22:46:41.966Z,7.66
2018-11-05T22:49:14.072Z,7.86
2018-11-05T22:51:45.143Z,7.89
2018-11-05T22:54:14.000Z,7.80
2018-11-05T22:56:42.346Z,7.70
2018-11-05T22:59:13.859Z,7.45
2018-11-05T23:01:47.895Z,7.45
2018-11-05T23:04:19.458Z,7.45
2018-11-05T23:06:51.129Z,7.34
2018-11-05T23:09:20.319Z,7.26
2018-11-05T23:11:49.606Z,7.14
2018-11-05T23:14:19.089Z,7.04
2018-11-05T23:16:48.335Z,7.05
2018-11-05T23:19:17.970Z,6.99
2018-11-05T23:21:46.276Z,6.94
2018-11-05T23:24:15.166Z,7.27
2018-11-05T23:26:43.398Z,7.46
2018-11-05T23:29:13.258Z,7.55
2018-11-05T23:31:52.357Z,7.56
2018-11-05T23:34:22.917Z,7.11
2018-11-05T23:36:54.178Z,7.00
2018-11-05T23:39:22.643Z,7.11
2018-11-05T23:41:51.819Z,7.33
2018-11-05T23:44:21.189Z,7.31
2018-11-05T23:46:49.845Z,7.22
2018-11-05T23:49:17.928Z,7.03
2018-11-05T23:51:46.124Z,6.99
2018-11-05T23:54:14.224Z,6.97
2018-11-05T23:56:42.316Z,7.30
2018-11-05T23:59:10.426Z,7.43
